Terminal Aerodrome Forecast
Issued by NWS

Home | Current Version | Previous Version | Text Only | Print | Product List | Glossary On
Versions: 1 2 3 4 5 6 7 8 9 10 11 12 13 14 15 16 17 18 19 20 21 22 23 24 25 26 27 28 29 30 31 32 33 34 35 36 37 38 39 40 41 42
000
FTUS43 KDMX 010530
TAFFOD
TAF
KFOD 010530Z 0106/0206 05008KT 1 1/2SM -SN BKN005 OVC011
     FM011100 04015G22KT 3/4SM -SN BLSN OVC004
     FM012200 01015G25KT 1SM -SN BLSN OVC010
     FM020200 36010KT P6SM BKN030 BKN250=

USA.gov is the U.S. government's official web portal to all federal, state and local government web resources and services.